sensor_id;sensor_type;location;lat;lon;timestamp;temperature;humidity
13892;DHT22;7016;48.172;8.058;2022-11-15T00:00:43;8.80;99.90
13892;DHT22;7016;48.172;8.058;2022-11-15T00:03:09;8.80;99.90
13892;DHT22;7016;48.172;8.058;2022-11-15T00:05:35;8.80;99.90
13892;DHT22;7016;48.172;8.058;2022-11-15T00:08:01;8.90;99.90
13892;DHT22;7016;48.172;8.058;2022-11-15T00:10:27;8.90;99.90
13892;DHT22;7016;48.172;8.058;2022-11-15T00:12:53;8.90;99.90
13892;DHT22;7016;48.172;8.058;2022-11-15T00:15:19;9.00;99.90
13892;DHT22;7016;48.172;8.058;2022-11-15T00:17:48;9.00;99.90
13892;DHT22;7016;48.172;8.058;2022-11-15T00:20:14;9.00;99.90
13892;DHT22;7016;48.172;8.058;2022-11-15T00:22:40;9.00;99.90
13892;DHT22;7016;48.172;8.058;2022-11-15T00:25:06;9.10;99.90
13892;DHT22;7016;48.172;8.058;2022-11-15T00:27:31;9.00;99.90
13892;DHT22;7016;48.172;8.058;2022-11-15T00:29:57;8.80;99.90
13892;DHT22;7016;48.172;8.058;2022-11-15T00:32:23;8.80;99.90
13892;DHT22;7016;48.172;8.058;2022-11-15T00:34:48;8.70;99.90
13892;DHT22;7016;48.172;8.058;2022-11-15T00:37:14;8.90;99.90
13892;DHT22;7016;48.172;8.058;2022-11-15T00:39:40;8.90;99.90
13892;DHT22;7016;48.172;8.058;2022-11-15T00:42:06;8.90;99.90
13892;DHT22;7016;48.172;8.058;2022-11-15T00:44:31;8.90;99.90
13892;DHT22;7016;48.172;8.058;2022-11-15T00:46:57;8.80;99.90
13892;DHT22;7016;48.172;8.058;2022-11-15T00:49:23;8.80;99.90
13892;DHT22;7016;48.172;8.058;2022-11-15T00:51:48;8.80;99.90
13892;DHT22;7016;48.172;8.058;2022-11-15T00:54:14;8.90;99.90
13892;DHT22;7016;48.172;8.058;2022-11-15T00:56:40;8.90;99.90
13892;DHT22;7016;48.172;8.058;2022-11-15T00:59:05;9.00;99.90
13892;DHT22;7016;48.172;8.058;2022-11-15T01:01:31;9.10;99.90
13892;DHT22;7016;48.172;8.058;2022-11-15T01:03:57;9.10;99.90
13892;DHT22;7016;48.172;8.058;2022-11-15T01:06:23;9.20;99.90
13892;DHT22;7016;48.172;8.058;2022-11-15T01:08:48;9.20;99.90
13892;DHT22;7016;48.172;8.058;2022-11-15T01:11:14;9.20;99.90
13892;DHT22;7016;48.172;8.058;2022-11-15T01:13:40;9.00;99.90
13892;DHT22;7016;48.172;8.058;2022-11-15T01:16:12;9.00;99.90
13892;DHT22;7016;48.172;8.058;2022-11-15T01:18:39;9.10;99.90
13892;DHT22;7016;48.172;8.058;2022-11-15T01:21:06;8.90;99.90
13892;DHT22;7016;48.172;8.058;2022-11-15T01:23:32;8.80;99.90
13892;DHT22;7016;48.172;8.058;2022-11-15T01:26:02;8.80;99.90
13892;DHT22;7016;48.172;8.058;2022-11-15T01:28:33;8.90;99.90
13892;DHT22;7016;48.172;8.058;2022-11-15T01:31:03;8.80;99.90
13892;DHT22;7016;48.172;8.058;2022-11-15T01:33:30;9.00;99.90
13892;DHT22;7016;48.172;8.058;2022-11-15T01:35:56;9.00;99.90
13892;DHT22;7016;48.172;8.058;2022-11-15T01:38:22;9.10;99.90
13892;DHT22;7016;48.172;8.058;2022-11-15T01:40:49;9.20;99.90
13892;DHT22;7016;48.172;8.058;2022-11-15T01:43:26;9.20;99.90
13892;DHT22;7016;48.172;8.058;2022-11-15T01:45:58;9.20;99.90
13892;DHT22;7016;48.172;8.058;2022-11-15T01:48:30;9.20;99.90
13892;DHT22;7016;48.172;8.058;2022-11-15T01:50:58;9.20;99.90
13892;DHT22;7016;48.172;8.058;2022-11-15T01:53:26;9.30;99.90
13892;DHT22;7016;48.172;8.058;2022-11-15T01:55:54;9.30;99.90
13892;DHT22;7016;48.172;8.058;2022-11-15T01:58:20;9.40;99.90
13892;DHT22;7016;48.172;8.058;2022-11-15T02:00:46;9.30;99.90
13892;DHT22;7016;48.172;8.058;2022-11-15T02:03:13;9.30;99.90
13892;DHT22;7016;48.172;8.058;2022-11-15T02:05:39;9.30;99.90
13892;DHT22;7016;48.172;8.058;2022-11-15T02:08:06;9.30;99.90
13892;DHT22;7016;48.172;8.058;2022-11-15T02:10:32;9.30;99.90
13892;DHT22;7016;48.172;8.058;2022-11-15T02:12:59;9.30;99.90
13892;DHT22;7016;48.172;8.058;2022-11-15T02:15:32;9.40;99.90
13892;DHT22;7016;48.172;8.058;2022-11-15T02:18:24;9.50;99.90
13892;DHT22;7016;48.172;8.058;2022-11-15T02:21:11;9.50;99.90
13892;DHT22;7016;48.172;8.058;2022-11-15T02:29:04;9.50;99.90
13892;DHT22;7016;48.172;8.058;2022-11-15T02:31:53;9.60;99.90
13892;DHT22;7016;48.172;8.058;2022-11-15T02:42:36;9.50;99.90
13892;DHT22;7016;48.172;8.058;2022-11-15T02:45:27;9.40;99.90
13892;DHT22;7016;48.172;8.058;2022-11-15T02:47:55;9.40;99.90
13892;DHT22;7016;48.172;8.058;2022-11-15T02:50:25;9.30;99.90
13892;DHT22;7016;48.172;8.058;2022-11-15T02:52:52;9.30;99.90
13892;DHT22;7016;48.172;8.058;2022-11-15T02:55:32;9.40;99.90
13892;DHT22;7016;48.172;8.058;2022-11-15T02:58:05;9.40;99.90
13892;DHT22;7016;48.172;8.058;2022-11-15T03:00:41;9.40;99.90
13892;DHT22;7016;48.172;8.058;2022-11-15T03:06:55;9.50;99.90
13892;DHT22;7016;48.172;8.058;2022-11-15T03:11:56;9.50;99.90
13892;DHT22;7016;48.172;8.058;2022-11-15T03:14:32;9.50;99.90
13892;DHT22;7016;48.172;8.058;2022-11-15T03:17:24;9.50;99.90
13892;DHT22;7016;48.172;8.058;2022-11-15T03:19:54;9.50;99.90
13892;DHT22;7016;48.172;8.058;2022-11-15T03:22:24;9.60;99.90
13892;DHT22;7016;48.172;8.058;2022-11-15T03:24:54;9.70;99.90
13892;DHT22;7016;48.172;8.058;2022-11-15T03:27:24;9.70;99.90
13892;DHT22;7016;48.172;8.058;2022-11-15T03:29:56;9.70;99.90
13892;DHT22;7016;48.172;8.058;2022-11-15T03:32:29;9.60;99.90
13892;DHT22;7016;48.172;8.058;2022-11-15T03:34:58;9.50;99.90
13892;DHT22;7016;48.172;8.058;2022-11-15T03:37:52;9.60;99.90
13892;DHT22;7016;48.172;8.058;2022-11-15T03:40:29;9.60;99.90
13892;DHT22;7016;48.172;8.058;2022-11-15T03:45:27;9.60;99.90
13892;DHT22;7016;48.172;8.058;2022-11-15T03:48:18;9.70;99.90
13892;DHT22;7016;48.172;8.058;2022-11-15T03:50:46;9.80;99.90
13892;DHT22;7016;48.172;8.058;2022-11-15T03:53:13;9.80;99.90
13892;DHT22;7016;48.172;8.058;2022-11-15T03:55:39;9.80;99.90
13892;DHT22;7016;48.172;8.058;2022-11-15T03:58:05;9.80;99.90
13892;DHT22;7016;48.172;8.058;2022-11-15T04:00:32;9.80;99.90
13892;DHT22;7016;48.172;8.058;2022-11-15T04:02:58;9.90;99.90
13892;DHT22;7016;48.172;8.058;2022-11-15T04:05:23;9.90;99.90
13892;DHT22;7016;48.172;8.058;2022-11-15T04:07:49;9.90;99.90
13892;DHT22;7016;48.172;8.058;2022-11-15T04:10:15;10.00;99.90
13892;DHT22;7016;48.172;8.058;2022-11-15T04:12:45;9.90;99.90
13892;DHT22;7016;48.172;8.058;2022-11-15T04:15:21;10.00;99.90
13892;DHT22;7016;48.172;8.058;2022-11-15T04:17:50;9.90;99.90
13892;DHT22;7016;48.172;8.058;2022-11-15T04:23:05;10.00;99.90
13892;DHT22;7016;48.172;8.058;2022-11-15T04:25:51;10.00;99.90
13892;DHT22;7016;48.172;8.058;2022-11-15T04:28:18;10.00;99.90
13892;DHT22;7016;48.172;8.058;2022-11-15T04:30:44;10.10;99.90
13892;DHT22;7016;48.172;8.058;2022-11-15T04:33:10;10.10;99.90
13892;DHT22;7016;48.172;8.058;2022-11-15T04:35:36;10.10;99.90
13892;DHT22;7016;48.172;8.058;2022-11-15T04:38:05;10.10;99.90
13892;DHT22;7016;48.172;8.058;2022-11-15T04:40:31;10.10;99.90
13892;DHT22;7016;48.172;8.058;2022-11-15T04:42:57;10.00;99.90
13892;DHT22;7016;48.172;8.058;2022-11-15T04:45:23;10.00;99.90
13892;DHT22;7016;48.172;8.058;2022-11-15T04:47:49;10.10;99.90
13892;DHT22;7016;48.172;8.058;2022-11-15T04:50:15;10.10;99.90
13892;DHT22;7016;48.172;8.058;2022-11-15T04:52:43;10.10;99.90
13892;DHT22;7016;48.172;8.058;2022-11-15T04:55:13;10.10;99.90
13892;DHT22;7016;48.172;8.058;2022-11-15T04:57:39;10.10;99.90
13892;DHT22;7016;48.172;8.058;2022-11-15T05:00:06;10.10;99.90
13892;DHT22;7016;48.172;8.058;2022-11-15T05:02:32;10.20;99.90
13892;DHT22;7016;48.172;8.058;2022-11-15T05:05:17;10.20;99.90
13892;DHT22;7016;48.172;8.058;2022-11-15T05:07:42;10.10;99.90
13892;DHT22;7016;48.172;8.058;2022-11-15T05:10:08;10.00;99.90
13892;DHT22;7016;48.172;8.058;2022-11-15T05:12:34;10.00;99.90
13892;DHT22;7016;48.172;8.058;2022-11-15T05:15:00;9.80;99.90
13892;DHT22;7016;48.172;8.058;2022-11-15T05:17:25;9.90;99.90
13892;DHT22;7016;48.172;8.058;2022-11-15T05:19:51;9.90;99.90
13892;DHT22;7016;48.172;8.058;2022-11-15T05:22:18;10.00;99.90
13892;DHT22;7016;48.172;8.058;2022-11-15T05:24:44;10.00;99.90
13892;DHT22;7016;48.172;8.058;2022-11-15T05:27:10;10.10;99.90
13892;DHT22;7016;48.172;8.058;2022-11-15T05:29:35;10.10;99.90
13892;DHT22;7016;48.172;8.058;2022-11-15T05:32:04;10.10;99.90
13892;DHT22;7016;48.172;8.058;2022-11-15T05:34:30;10.10;99.90
13892;DHT22;7016;48.172;8.058;2022-11-15T05:36:57;10.10;99.90
13892;DHT22;7016;48.172;8.058;2022-11-15T05:39:23;10.10;99.90
13892;DHT22;7016;48.172;8.058;2022-11-15T05:41:52;10.10;99.90
13892;DHT22;7016;48.172;8.058;2022-11-15T05:44:21;10.10;99.90
13892;DHT22;7016;48.172;8.058;2022-11-15T05:46:49;10.10;99.90
13892;DHT22;7016;48.172;8.058;2022-11-15T05:49:18;10.10;99.90
13892;DHT22;7016;48.172;8.058;2022-11-15T05:51:46;10.10;99.90
13892;DHT22;7016;48.172;8.058;2022-11-15T05:54:12;10.10;99.90
13892;DHT22;7016;48.172;8.058;2022-11-15T05:56:39;10.20;99.90
13892;DHT22;7016;48.172;8.058;2022-11-15T05:59:05;10.20;99.90
13892;DHT22;7016;48.172;8.058;2022-11-15T06:01:33;10.30;99.90
13892;DHT22;7016;48.172;8.058;2022-11-15T06:03:58;10.30;99.90
13892;DHT22;7016;48.172;8.058;2022-11-15T06:06:24;10.30;99.90
13892;DHT22;7016;48.172;8.058;2022-11-15T06:08:50;10.20;99.90
13892;DHT22;7016;48.172;8.058;2022-11-15T06:11:15;10.20;99.90
13892;DHT22;7016;48.172;8.058;2022-11-15T06:13:41;11.20;99.90
13892;DHT22;7016;48.172;8.058;2022-11-15T06:16:07;10.20;99.90
13892;DHT22;7016;48.172;8.058;2022-11-15T06:18:33;10.20;99.90
13892;DHT22;7016;48.172;8.058;2022-11-15T06:20:59;10.20;99.90
13892;DHT22;7016;48.172;8.058;2022-11-15T06:23:25;10.20;99.90
13892;DHT22;7016;48.172;8.058;2022-11-15T06:25:51;10.20;99.90
13892;DHT22;7016;48.172;8.058;2022-11-15T06:28:16;10.20;99.90
13892;DHT22;7016;48.172;8.058;2022-11-15T06:30:42;10.20;99.90
13892;DHT22;7016;48.172;8.058;2022-11-15T06:33:08;10.10;99.90
13892;DHT22;7016;48.172;8.058;2022-11-15T06:35:35;10.10;99.90
13892;DHT22;7016;48.172;8.058;2022-11-15T06:38:11;10.10;99.90
13892;DHT22;7016;48.172;8.058;2022-11-15T06:40:38;10.10;99.90
13892;DHT22;7016;48.172;8.058;2022-11-15T06:43:04;10.10;99.90
13892;DHT22;7016;48.172;8.058;2022-11-15T06:45:31;10.00;99.90
13892;DHT22;7016;48.172;8.058;2022-11-15T06:47:57;10.10;99.90
13892;DHT22;7016;48.172;8.058;2022-11-15T06:50:23;10.10;99.90
13892;DHT22;7016;48.172;8.058;2022-11-15T06:52:49;9.60;99.90
13892;DHT22;7016;48.172;8.058;2022-11-15T06:55:15;10.00;99.90
13892;DHT22;7016;48.172;8.058;2022-11-15T06:57:51;9.90;99.90
13892;DHT22;7016;48.172;8.058;2022-11-15T07:00:18;10.00;99.90
13892;DHT22;7016;48.172;8.058;2022-11-15T07:02:44;10.00;99.90
13892;DHT22;7016;48.172;8.058;2022-11-15T07:05:11;10.10;99.90
13892;DHT22;7016;48.172;8.058;2022-11-15T07:07:37;10.10;99.90
13892;DHT22;7016;48.172;8.058;2022-11-15T07:10:03;10.10;99.90
13892;DHT22;7016;48.172;8.058;2022-11-15T07:12:29;10.10;99.90
13892;DHT22;7016;48.172;8.058;2022-11-15T07:14:54;10.00;99.90
13892;DHT22;7016;48.172;8.058;2022-11-15T07:17:20;9.90;99.90
13892;DHT22;7016;48.172;8.058;2022-11-15T07:19:46;10.00;99.90
13892;DHT22;7016;48.172;8.058;2022-11-15T07:22:11;10.10;99.90
13892;DHT22;7016;48.172;8.058;2022-11-15T07:24:37;10.10;99.90
13892;DHT22;7016;48.172;8.058;2022-11-15T07:27:03;10.10;99.90
13892;DHT22;7016;48.172;8.058;2022-11-15T07:29:28;10.20;99.90
13892;DHT22;7016;48.172;8.058;2022-11-15T07:31:54;10.20;99.90
13892;DHT22;7016;48.172;8.058;2022-11-15T07:34:20;10.20;99.90
13892;DHT22;7016;48.172;8.058;2022-11-15T07:36:46;10.10;99.90
13892;DHT22;7016;48.172;8.058;2022-11-15T07:39:11;10.20;99.90
13892;DHT22;7016;48.172;8.058;2022-11-15T07:41:37;10.30;99.90
13892;DHT22;7016;48.172;8.058;2022-11-15T07:44:04;10.30;99.90
13892;DHT22;7016;48.172;8.058;2022-11-15T07:46:31;10.30;99.90
13892;DHT22;7016;48.172;8.058;2022-11-15T07:48:56;10.40;99.90
13892;DHT22;7016;48.172;8.058;2022-11-15T07:51:22;10.40;99.90
13892;DHT22;7016;48.172;8.058;2022-11-15T07:53:48;10.30;99.90
13892;DHT22;7016;48.172;8.058;2022-11-15T07:56:14;10.20;99.90
13892;DHT22;7016;48.172;8.058;2022-11-15T07:58:40;10.20;99.90
13892;DHT22;7016;48.172;8.058;2022-11-15T08:01:07;10.20;99.90
13892;DHT22;7016;48.172;8.058;2022-11-15T08:03:34;10.40;99.90
13892;DHT22;7016;48.172;8.058;2022-11-15T08:06:01;10.40;99.90
13892;DHT22;7016;48.172;8.058;2022-11-15T08:08:27;10.30;99.90
13892;DHT22;7016;48.172;8.058;2022-11-15T08:10:52;10.30;99.90
13892;DHT22;7016;48.172;8.058;2022-11-15T08:13:18;10.30;99.90
13892;DHT22;7016;48.172;8.058;2022-11-15T08:15:44;10.40;99.90
13892;DHT22;7016;48.172;8.058;2022-11-15T08:18:12;10.50;99.90
13892;DHT22;7016;48.172;8.058;2022-11-15T08:20:38;10.50;99.90
13892;DHT22;7016;48.172;8.058;2022-11-15T08:25:32;10.60;99.90
13892;DHT22;7016;48.172;8.058;2022-11-15T08:28:00;10.50;99.90
13892;DHT22;7016;48.172;8.058;2022-11-15T08:30:27;10.60;99.90
13892;DHT22;7016;48.172;8.058;2022-11-15T08:32:55;10.70;99.90
13892;DHT22;7016;48.172;8.058;2022-11-15T08:35:21;10.60;99.90
13892;DHT22;7016;48.172;8.058;2022-11-15T08:37:47;10.60;99.90
13892;DHT22;7016;48.172;8.058;2022-11-15T08:40:13;10.50;99.90
13892;DHT22;7016;48.172;8.058;2022-11-15T08:42:40;10.60;99.90
13892;DHT22;7016;48.172;8.058;2022-11-15T08:45:06;10.70;99.90
13892;DHT22;7016;48.172;8.058;2022-11-15T08:47:32;10.70;99.90
13892;DHT22;7016;48.172;8.058;2022-11-15T08:49:58;10.70;99.90
13892;DHT22;7016;48.172;8.058;2022-11-15T08:52:24;10.80;99.90
13892;DHT22;7016;48.172;8.058;2022-11-15T08:54:50;10.80;99.90
13892;DHT22;7016;48.172;8.058;2022-11-15T08:57:15;10.80;99.90
13892;DHT22;7016;48.172;8.058;2022-11-15T08:59:41;10.80;99.90
13892;DHT22;7016;48.172;8.058;2022-11-15T09:02:12;10.80;99.90
13892;DHT22;7016;48.172;8.058;2022-11-15T09:04:40;10.80;99.90
13892;DHT22;7016;48.172;8.058;2022-11-15T09:07:06;10.80;99.90
13892;DHT22;7016;48.172;8.058;2022-11-15T09:09:32;10.90;99.90
13892;DHT22;7016;48.172;8.058;2022-11-15T09:11:58;10.90;99.90
13892;DHT22;7016;48.172;8.058;2022-11-15T09:14:23;11.00;99.90
13892;DHT22;7016;48.172;8.058;2022-11-15T09:16:49;11.00;99.90
13892;DHT22;7016;48.172;8.058;2022-11-15T09:19:15;11.10;99.90
13892;DHT22;7016;48.172;8.058;2022-11-15T09:21:40;11.10;99.90
13892;DHT22;7016;48.172;8.058;2022-11-15T09:24:06;11.00;99.90
13892;DHT22;7016;48.172;8.058;2022-11-15T09:26:32;11.00;99.90
13892;DHT22;7016;48.172;8.058;2022-11-15T09:28:58;11.10;99.90
13892;DHT22;7016;48.172;8.058;2022-11-15T09:31:23;11.10;99.90
13892;DHT22;7016;48.172;8.058;2022-11-15T09:33:49;11.20;99.90
13892;DHT22;7016;48.172;8.058;2022-11-15T09:36:15;11.20;99.90
13892;DHT22;7016;48.172;8.058;2022-11-15T09:38:42;11.20;99.90
13892;DHT22;7016;48.172;8.058;2022-11-15T09:49:14;11.40;99.90
13892;DHT22;7016;48.172;8.058;2022-11-15T09:51:43;11.40;99.90
13892;DHT22;7016;48.172;8.058;2022-11-15T09:54:37;11.40;99.90
13892;DHT22;7016;48.172;8.058;2022-11-15T09:57:41;11.30;99.90
13892;DHT22;7016;48.172;8.058;2022-11-15T10:00:25;11.30;99.90
13892;DHT22;7016;48.172;8.058;2022-11-15T10:03:13;11.40;99.90
13892;DHT22;7016;48.172;8.058;2022-11-15T10:05:43;11.50;99.90
13892;DHT22;7016;48.172;8.058;2022-11-15T10:08:26;11.50;99.90
13892;DHT22;7016;48.172;8.058;2022-11-15T10:10:59;11.50;99.90
13892;DHT22;7016;48.172;8.058;2022-11-15T10:13:28;11.60;99.90
13892;DHT22;7016;48.172;8.058;2022-11-15T10:19:01;11.60;99.90
13892;DHT22;7016;48.172;8.058;2022-11-15T10:21:54;11.70;99.90
13892;DHT22;7016;48.172;8.058;2022-11-15T10:24:26;11.70;99.90
13892;DHT22;7016;48.172;8.058;2022-11-15T10:26:56;11.70;99.90
13892;DHT22;7016;48.172;8.058;2022-11-15T10:29:23;11.70;99.90
13892;DHT22;7016;48.172;8.058;2022-11-15T10:31:49;11.80;99.90
13892;DHT22;7016;48.172;8.058;2022-11-15T10:34:17;11.80;99.90
13892;DHT22;7016;48.172;8.058;2022-11-15T10:36:46;11.70;99.90
13892;DHT22;7016;48.172;8.058;2022-11-15T10:39:13;11.80;99.90
13892;DHT22;7016;48.172;8.058;2022-11-15T10:41:41;11.80;99.90
13892;DHT22;7016;48.172;8.058;2022-11-15T10:46:45;11.90;99.90
13892;DHT22;7016;48.172;8.058;2022-11-15T10:49:19;11.80;99.90
13892;DHT22;7016;48.172;8.058;2022-11-15T10:54:21;11.90;99.90
13892;DHT22;7016;48.172;8.058;2022-11-15T10:56:55;11.80;99.90
13892;DHT22;7016;48.172;8.058;2022-11-15T10:59:32;11.80;99.90
13892;DHT22;7016;48.172;8.058;2022-11-15T11:01:59;11.80;99.90
13892;DHT22;7016;48.172;8.058;2022-11-15T11:04:25;11.90;99.90
13892;DHT22;7016;48.172;8.058;2022-11-15T11:06:57;12.00;99.90
13892;DHT22;7016;48.172;8.058;2022-11-15T11:09:35;12.00;99.90
13892;DHT22;7016;48.172;8.058;2022-11-15T11:12:03;12.10;99.90
13892;DHT22;7016;48.172;8.058;2022-11-15T11:14:32;12.10;99.90
13892;DHT22;7016;48.172;8.058;2022-11-15T11:22:21;12.30;99.90
13892;DHT22;7016;48.172;8.058;2022-11-15T11:25:23;12.30;99.90
13892;DHT22;7016;48.172;8.058;2022-11-15T11:33:22;12.30;99.90
13892;DHT22;7016;48.172;8.058;2022-11-15T11:35:54;12.30;99.90
13892;DHT22;7016;48.172;8.058;2022-11-15T11:41:14;12.40;99.90
13892;DHT22;7016;48.172;8.058;2022-11-15T11:48:57;12.40;99.90
13892;DHT22;7016;48.172;8.058;2022-11-15T11:51:28;12.40;99.90
13892;DHT22;7016;48.172;8.058;2022-11-15T11:54:03;12.30;99.90
13892;DHT22;7016;48.172;8.058;2022-11-15T11:56:37;12.40;99.90
13892;DHT22;7016;48.172;8.058;2022-11-15T11:59:16;12.30;99.90
13892;DHT22;7016;48.172;8.058;2022-11-15T12:01:44;12.40;99.90
13892;DHT22;7016;48.172;8.058;2022-11-15T12:09:23;12.50;99.90
13892;DHT22;7016;48.172;8.058;2022-11-15T12:14:53;12.60;99.90
13892;DHT22;7016;48.172;8.058;2022-11-15T12:17:29;12.60;99.90
13892;DHT22;7016;48.172;8.058;2022-11-15T12:20:04;12.70;99.90
13892;DHT22;7016;48.172;8.058;2022-11-15T12:22:53;12.70;99.90
13892;DHT22;7016;48.172;8.058;2022-11-15T12:28:19;12.80;99.90
13892;DHT22;7016;48.172;8.058;2022-11-15T12:30:56;12.90;99.90
13892;DHT22;7016;48.172;8.058;2022-11-15T12:33:44;13.00;99.90
13892;DHT22;7016;48.172;8.058;2022-11-15T12:36:40;12.90;99.90
13892;DHT22;7016;48.172;8.058;2022-11-15T12:39:10;13.00;99.90
13892;DHT22;7016;48.172;8.058;2022-11-15T12:41:38;13.00;99.90
13892;DHT22;7016;48.172;8.058;2022-11-15T12:44:05;13.10;99.90
13892;DHT22;7016;48.172;8.058;2022-11-15T13:02:36;13.30;99.90
13892;DHT22;7016;48.172;8.058;2022-11-15T13:17:52;13.20;99.90
13892;DHT22;7016;48.172;8.058;2022-11-15T13:20:29;13.30;99.90
13892;DHT22;7016;48.172;8.058;2022-11-15T13:30:55;13.30;99.90
13892;DHT22;7016;48.172;8.058;2022-11-15T13:33:33;13.40;99.90
13892;DHT22;7016;48.172;8.058;2022-11-15T13:36:05;13.40;99.90
13892;DHT22;7016;48.172;8.058;2022-11-15T13:38:34;13.30;99.90
13892;DHT22;7016;48.172;8.058;2022-11-15T13:43:43;13.30;99.90
13892;DHT22;7016;48.172;8.058;2022-11-15T13:46:19;13.40;99.90
13892;DHT22;7016;48.172;8.058;2022-11-15T13:48:52;13.40;99.90
13892;DHT22;7016;48.172;8.058;2022-11-15T13:51:25;13.40;99.90
13892;DHT22;7016;48.172;8.058;2022-11-15T13:56:29;13.20;99.90
13892;DHT22;7016;48.172;8.058;2022-11-15T13:58:57;13.30;99.90
13892;DHT22;7016;48.172;8.058;2022-11-15T14:01:23;13.40;99.90
13892;DHT22;7016;48.172;8.058;2022-11-15T14:03:56;12.90;99.90
13892;DHT22;7016;48.172;8.058;2022-11-15T14:06:25;13.30;99.90
13892;DHT22;7016;48.172;8.058;2022-11-15T14:11:26;13.30;99.90
13892;DHT22;7016;48.172;8.058;2022-11-15T14:14:13;13.10;99.90
13892;DHT22;7016;48.172;8.058;2022-11-15T14:16:44;13.10;99.90
13892;DHT22;7016;48.172;8.058;2022-11-15T14:19:32;13.10;99.90
13892;DHT22;7016;48.172;8.058;2022-11-15T14:22:21;13.10;99.90
13892;DHT22;7016;48.172;8.058;2022-11-15T14:25:24;13.10;99.90
13892;DHT22;7016;48.172;8.058;2022-11-15T14:30:53;12.80;99.90
13892;DHT22;7016;48.172;8.058;2022-11-15T14:33:22;12.80;99.90
13892;DHT22;7016;48.172;8.058;2022-11-15T14:35:50;12.80;99.90
13892;DHT22;7016;48.172;8.058;2022-11-15T14:38:16;12.80;99.90
13892;DHT22;7016;48.172;8.058;2022-11-15T14:40:42;12.90;99.90
13892;DHT22;7016;48.172;8.058;2022-11-15T14:43:10;12.90;99.90
13892;DHT22;7016;48.172;8.058;2022-11-15T14:45:37;12.90;99.90
13892;DHT22;7016;48.172;8.058;2022-11-15T14:48:03;12.80;99.90
13892;DHT22;7016;48.172;8.058;2022-11-15T14:50:29;12.80;99.90
13892;DHT22;7016;48.172;8.058;2022-11-15T14:52:54;12.90;99.90
13892;DHT22;7016;48.172;8.058;2022-11-15T14:55:26;12.90;99.90
13892;DHT22;7016;48.172;8.058;2022-11-15T14:57:57;13.00;99.90
13892;DHT22;7016;48.172;8.058;2022-11-15T15:00:23;13.00;99.90
13892;DHT22;7016;48.172;8.058;2022-11-15T15:02:50;12.90;99.90
13892;DHT22;7016;48.172;8.058;2022-11-15T15:05:39;12.90;99.90
13892;DHT22;7016;48.172;8.058;2022-11-15T15:08:06;13.00;99.90
13892;DHT22;7016;48.172;8.058;2022-11-15T15:10:35;13.00;99.90
13892;DHT22;7016;48.172;8.058;2022-11-15T15:13:01;12.90;99.90
13892;DHT22;7016;48.172;8.058;2022-11-15T15:15:35;12.80;99.90
13892;DHT22;7016;48.172;8.058;2022-11-15T15:18:02;12.90;99.90
13892;DHT22;7016;48.172;8.058;2022-11-15T15:20:29;13.00;99.90
13892;DHT22;7016;48.172;8.058;2022-11-15T15:22:55;13.00;99.90
13892;DHT22;7016;48.172;8.058;2022-11-15T15:25:34;13.00;99.90
13892;DHT22;7016;48.172;8.058;2022-11-15T15:28:01;12.90;99.90
13892;DHT22;7016;48.172;8.058;2022-11-15T15:30:29;13.00;99.90
13892;DHT22;7016;48.172;8.058;2022-11-15T15:32:55;12.90;99.90
13892;DHT22;7016;48.172;8.058;2022-11-15T15:35:22;13.00;99.90
13892;DHT22;7016;48.172;8.058;2022-11-15T15:37:49;13.00;99.90
13892;DHT22;7016;48.172;8.058;2022-11-15T15:40:20;12.80;99.90
13892;DHT22;7016;48.172;8.058;2022-11-15T15:42:47;12.80;99.90
13892;DHT22;7016;48.172;8.058;2022-11-15T15:45:14;12.70;99.90
13892;DHT22;7016;48.172;8.058;2022-11-15T15:47:40;12.70;99.90
13892;DHT22;7016;48.172;8.058;2022-11-15T15:50:25;12.80;99.90
13892;DHT22;7016;48.172;8.058;2022-11-15T15:52:52;12.80;99.90
13892;DHT22;7016;48.172;8.058;2022-11-15T15:55:18;12.80;99.90
13892;DHT22;7016;48.172;8.058;2022-11-15T15:57:44;12.70;99.90
13892;DHT22;7016;48.172;8.058;2022-11-15T16:00:10;12.60;99.90
13892;DHT22;7016;48.172;8.058;2022-11-15T16:02:36;12.70;99.90
13892;DHT22;7016;48.172;8.058;2022-11-15T16:05:02;12.50;99.90
13892;DHT22;7016;48.172;8.058;2022-11-15T16:07:28;12.60;99.90
13892;DHT22;7016;48.172;8.058;2022-11-15T16:09:55;12.60;99.90
13892;DHT22;7016;48.172;8.058;2022-11-15T16:12:35;12.50;99.90
13892;DHT22;7016;48.172;8.058;2022-11-15T16:15:02;12.50;99.90
13892;DHT22;7016;48.172;8.058;2022-11-15T16:17:33;12.60;99.90
13892;DHT22;7016;48.172;8.058;2022-11-15T16:20:01;12.50;99.90
13892;DHT22;7016;48.172;8.058;2022-11-15T16:22:27;12.60;99.90
13892;DHT22;7016;48.172;8.058;2022-11-15T16:24:54;12.60;99.90
13892;DHT22;7016;48.172;8.058;2022-11-15T16:27:21;12.50;99.90
13892;DHT22;7016;48.172;8.058;2022-11-15T16:29:47;12.60;99.90
13892;DHT22;7016;48.172;8.058;2022-11-15T16:32:13;12.50;99.90
13892;DHT22;7016;48.172;8.058;2022-11-15T16:34:39;12.50;99.90
13892;DHT22;7016;48.172;8.058;2022-11-15T16:37:08;12.50;99.90
13892;DHT22;7016;48.172;8.058;2022-11-15T16:39:36;12.60;99.90
13892;DHT22;7016;48.172;8.058;2022-11-15T16:42:02;12.50;99.90
13892;DHT22;7016;48.172;8.058;2022-11-15T16:44:28;12.40;99.90
13892;DHT22;7016;48.172;8.058;2022-11-15T16:46:54;12.40;99.90
13892;DHT22;7016;48.172;8.058;2022-11-15T16:49:20;12.40;99.90
13892;DHT22;7016;48.172;8.058;2022-11-15T16:51:48;12.40;99.90
13892;DHT22;7016;48.172;8.058;2022-11-15T16:54:14;12.30;99.90
13892;DHT22;7016;48.172;8.058;2022-11-15T16:56:40;12.30;99.90
13892;DHT22;7016;48.172;8.058;2022-11-15T16:59:06;12.30;99.90
13892;DHT22;7016;48.172;8.058;2022-11-15T17:01:35;12.30;99.90
13892;DHT22;7016;48.172;8.058;2022-11-15T17:04:03;12.30;99.90
13892;DHT22;7016;48.172;8.058;2022-11-15T17:06:41;12.40;99.90
13892;DHT22;7016;48.172;8.058;2022-11-15T17:09:21;12.40;99.90
13892;DHT22;7016;48.172;8.058;2022-11-15T17:11:50;12.40;99.90
13892;DHT22;7016;48.172;8.058;2022-11-15T17:14:17;12.40;99.90
13892;DHT22;7016;48.172;8.058;2022-11-15T17:16:43;12.40;99.90
13892;DHT22;7016;48.172;8.058;2022-11-15T17:19:16;12.30;99.90
13892;DHT22;7016;48.172;8.058;2022-11-15T17:21:43;12.40;99.90
13892;DHT22;7016;48.172;8.058;2022-11-15T17:24:09;12.40;99.90
13892;DHT22;7016;48.172;8.058;2022-11-15T17:26:36;12.30;99.90
13892;DHT22;7016;48.172;8.058;2022-11-15T17:29:02;12.20;99.90
13892;DHT22;7016;48.172;8.058;2022-11-15T17:31:29;12.20;99.90
13892;DHT22;7016;48.172;8.058;2022-11-15T17:33:59;12.10;99.90
13892;DHT22;7016;48.172;8.058;2022-11-15T17:36:26;12.00;99.90
13892;DHT22;7016;48.172;8.058;2022-11-15T17:38:51;12.00;99.90
13892;DHT22;7016;48.172;8.058;2022-11-15T17:41:17;12.10;99.90
13892;DHT22;7016;48.172;8.058;2022-11-15T17:43:46;12.00;99.90
13892;DHT22;7016;48.172;8.058;2022-11-15T17:46:15;12.00;99.90
13892;DHT22;7016;48.172;8.058;2022-11-15T17:48:42;12.10;99.90
13892;DHT22;7016;48.172;8.058;2022-11-15T17:51:14;12.00;99.90
13892;DHT22;7016;48.172;8.058;2022-11-15T17:53:41;12.10;99.90
13892;DHT22;7016;48.172;8.058;2022-11-15T17:56:12;12.10;99.90
13892;DHT22;7016;48.172;8.058;2022-11-15T17:58:39;12.10;99.90
13892;DHT22;7016;48.172;8.058;2022-11-15T18:01:17;12.10;99.90
13892;DHT22;7016;48.172;8.058;2022-11-15T18:03:43;12.00;99.90